Time;durP1;ratioP1;P1;durP2;ratioP2;P2;SDS_P1;SDS_P2;PMS_P1;PMS_P2;Temp;Humidity;BMP_temperature;BMP_pressure;BME280_temperature;BME280_humidity;BME280_pressure;Samples;Min_cycle;Max_cycle;Signal;HPM_P1;HPM_P2
2022/07/30 00:00:23;;;;;;;10.73;5.53;;;;;;;20.58;65.68;96669.97;4899955;29;20509;-76
2022/07/30 00:02:53;;;;;;;5.07;4.68;;;;;;;20.55;66.07;96670.44;4900697;29;20060;-75
2022/07/30 00:05:20;;;;;;;5.32;4.82;;;;;;;20.54;65.85;96674.13;4917863;29;20049;-76
2022/07/30 00:07:48;;;;;;;5.60;5.00;;;;;;;20.56;65.86;96665.94;4922131;29;20059;-76
2022/07/30 00:10:15;;;;;;;5.55;4.50;;;;;;;20.57;65.70;96668.38;4913759;29;20048;-76
2022/07/30 00:12:43;;;;;;;4.75;4.35;;;;;;;20.58;65.90;96669.97;4901602;29;20080;-76
2022/07/30 00:15:11;;;;;;;6.03;4.95;;;;;;;20.53;65.77;96661.94;4900715;29;20080;-77
2022/07/30 00:17:38;;;;;;;5.28;3.95;;;;;;;20.54;65.89;96673.31;4900513;29;20116;-75
2022/07/30 00:20:08;;;;;;;6.22;5.63;;;;;;;20.51;65.88;96664.03;4899801;29;20090;-76
2022/07/30 00:22:39;;;;;;;5.72;5.13;;;;;;;20.45;65.88;96659.69;4900082;29;20053;-76
2022/07/30 00:25:07;;;;;;;6.88;4.60;;;;;;;20.43;66.29;96671.56;4899978;29;20079;-77
2022/07/30 00:27:35;;;;;;;5.40;4.72;;;;;;;20.43;66.08;96663.63;4899992;29;20056;-76
2022/07/30 00:30:04;;;;;;;7.57;5.07;;;;;;;20.39;66.07;96671.25;4899435;29;20055;-77
2022/07/30 00:32:31;;;;;;;5.75;4.85;;;;;;;20.38;66.04;96669.66;4899774;29;20083;-77
2022/07/30 00:34:59;;;;;;;6.07;4.80;;;;;;;20.37;65.89;96668.03;4899772;29;20523;-75
2022/07/30 00:37:28;;;;;;;5.53;4.88;;;;;;;20.34;66.07;96679.13;4899511;29;20091;-75
2022/07/30 00:39:55;;;;;;;9.27;5.40;;;;;;;20.30;65.97;96676.16;4899494;29;20563;-75
2022/07/30 00:42:25;;;;;;;8.35;5.60;;;;;;;20.27;66.29;96675.81;4899524;29;20056;-75
2022/07/30 00:44:53;;;;;;;8.00;5.15;;;;;;;20.24;66.20;96673.66;4899757;29;20083;-75
2022/07/30 00:47:20;;;;;;;5.75;5.25;;;;;;;20.20;66.20;96672.53;4899591;29;20347;-76
2022/07/30 00:49:48;;;;;;;7.10;5.63;;;;;;;20.14;66.33;96675.13;4899283;29;20053;-76
2022/07/30 00:52:15;;;;;;;6.35;5.45;;;;;;;20.10;66.64;96668.69;4899545;29;20049;-76
2022/07/30 00:54:44;;;;;;;6.45;5.85;;;;;;;20.08;66.68;96670.78;4899579;29;20565;-76
2022/07/30 00:57:12;;;;;;;5.72;5.22;;;;;;;20.06;66.50;96680.00;4899468;29;20143;-76
2022/07/30 00:59:39;;;;;;;6.53;5.10;;;;;;;20.06;66.54;96682.66;4899467;29;20100;-76
2022/07/30 01:02:07;;;;;;;6.43;5.03;;;;;;;20.04;66.57;96682.88;4898871;29;20052;-76
2022/07/30 01:04:34;;;;;;;6.40;5.57;;;;;;;20.01;66.22;96690.53;4898969;29;20104;-75
2022/07/30 01:07:02;;;;;;;6.88;5.22;;;;;;;19.97;66.51;96684.91;4899052;29;20474;-76
2022/07/30 01:09:30;;;;;;;4.97;4.47;;;;;;;19.94;66.37;96694.13;4898941;29;20502;-76
2022/07/30 01:11:59;;;;;;;7.63;4.80;;;;;;;19.93;66.60;96689.06;4899041;29;20053;-75
2022/07/30 01:14:26;;;;;;;5.65;4.10;;;;;;;19.94;66.78;96686.19;4899219;29;20053;-76
2022/07/30 01:16:54;;;;;;;5.50;4.93;;;;;;;19.92;66.30;96687.47;4899090;29;20088;-76
2022/07/30 01:22:17;;;;;;;6.10;5.20;;;;;;;19.89;66.45;96690.56;4917890;29;20057;-75
2022/07/30 01:24:55;;;;;;;7.00;5.45;;;;;;;19.88;66.59;96689.78;4903087;29;20127;-76
2022/07/30 01:27:26;;;;;;;5.10;4.70;;;;;;;19.89;66.26;96687.94;4901721;29;20092;-76
2022/07/30 01:29:55;;;;;;;6.55;5.25;;;;;;;19.87;66.00;96690.00;4900089;29;20076;-76
2022/07/30 01:32:25;;;;;;;8.70;5.20;;;;;;;19.85;65.97;96686.78;4899516;29;20056;-76
2022/07/30 01:34:55;;;;;;;8.85;5.90;;;;;;;19.81;66.05;96680.38;4899319;29;20053;-75
2022/07/30 01:37:24;;;;;;;8.50;5.13;;;;;;;19.74;66.08;96686.63;4899210;29;20060;-75
2022/07/30 01:39:53;;;;;;;5.78;5.25;;;;;;;19.69;66.26;96686.53;4898620;29;20052;-75
2022/07/30 01:42:23;;;;;;;5.93;5.30;;;;;;;19.62;66.40;96685.84;4898609;29;20139;-75
2022/07/30 01:44:54;;;;;;;7.07;5.45;;;;;;;19.54;66.69;96692.31;4898809;29;20076;-75
2022/07/30 01:47:24;;;;;;;5.85;5.35;;;;;;;19.49;66.84;96692.22;4898679;29;20143;-75
2022/07/30 01:49:54;;;;;;;7.25;5.38;;;;;;;19.46;66.90;96690.06;4898324;29;20059;-76
2022/07/30 01:52:24;;;;;;;7.15;5.68;;;;;;;19.43;67.07;96695.00;4898234;29;20052;-75
2022/07/30 01:54:55;;;;;;;5.85;5.32;;;;;;;19.37;67.04;96696.75;4898700;29;20092;-75
2022/07/30 01:57:23;;;;;;;8.05;5.80;;;;;;;19.31;67.13;96682.63;4899561;29;20048;-76
2022/07/30 01:59:57;;;;;;;5.72;5.18;;;;;;;19.27;67.28;96684.13;4898876;29;20493;-75
2022/07/30 02:02:24;;;;;;;5.10;4.70;;;;;;;19.26;67.35;96687.84;4898777;29;20128;-75
2022/07/30 02:04:52;;;;;;;5.65;5.15;;;;;;;19.26;67.09;96690.47;4897885;29;20095;-75
2022/07/30 02:07:27;;;;;;;7.40;5.07;;;;;;;19.23;67.31;96690.94;4898489;29;20469;-76
2022/07/30 02:10:03;;;;;;;5.72;5.22;;;;;;;19.22;67.24;96691.97;4897940;29;20166;-75
2022/07/30 02:12:32;;;;;;;5.15;4.72;;;;;;;19.21;66.66;96685.06;4898232;29;20432;-76
2022/07/30 02:15:25;;;;;;;6.97;5.15;;;;;;;19.17;66.86;96691.06;4897935;29;20053;-76
2022/07/30 02:17:55;;;;;;;;;;;;;;;19.19;66.60;96684.50;4888793;29;20053;-75
2022/07/30 02:20:27;;;;;;;6.72;4.78;;;;;;;19.13;66.31;96698.66;4897765;29;19932;-76
2022/07/30 02:22:59;;;;;;;6.25;4.90;;;;;;;19.11;66.73;96701.56;4897798;29;20075;-75
2022/07/30 02:25:28;;;;;;;;;;;;;;;19.14;66.73;96692.34;4898064;29;20534;-75
2022/07/30 02:28:02;;;;;;;7.43;5.78;;;;;;;19.14;66.75;96697.63;4897847;29;19973;-75
2022/07/30 02:30:36;;;;;;;5.10;4.60;;;;;;;19.17;66.85;96702.44;4897461;29;20084;-75
2022/07/30 02:33:09;;;;;;;7.45;5.10;;;;;;;19.20;66.13;96702.00;4897778;29;20140;-75
2022/07/30 02:35:38;;;;;;;6.88;4.32;;;;;;;19.19;65.59;96703.00;4897495;29;20167;-76
2022/07/30 02:48:50;;;;;;;5.15;3.90;;;;;;;19.29;65.19;96705.88;5703135;23;20341;-82
2022/07/30 02:51:19;;;;;;;8.52;4.45;;;;;;;19.28;64.86;96709.53;4907545;29;20077;-82
2022/07/30 02:53:49;;;;;;;6.35;4.47;;;;;;;19.26;64.82;96706.34;4908659;29;20139;-79
2022/07/30 02:56:21;;;;;;;4.75;4.18;;;;;;;19.24;64.40;96710.25;4909150;29;20048;-79
2022/07/30 02:58:51;;;;;;;4.72;3.90;;;;;;;19.25;64.44;96706.56;4908860;29;20056;-80
2022/07/30 03:01:22;;;;;;;5.30;4.80;;;;;;;19.23;64.01;96706.78;4908049;29;20049;-80
2022/07/30 03:03:53;;;;;;;6.38;4.30;;;;;;;19.22;64.13;96707.03;4907412;29;20053;-80
2022/07/30 03:06:24;;;;;;;4.20;3.90;;;;;;;19.21;64.05;96708.06;4907532;29;20492;-78
2022/07/30 03:08:54;;;;;;;6.05;4.25;;;;;;;19.20;64.24;96707.28;4905608;29;20081;-78
2022/07/30 03:11:23;;;;;;;5.13;4.65;;;;;;;19.18;63.99;96701.41;4905481;29;20398;-79
2022/07/30 03:13:51;;;;;;;5.57;4.15;;;;;;;19.16;64.18;96705.34;4905305;29;20076;-77
2022/07/30 03:16:22;;;;;;;4.18;3.88;;;;;;;19.14;63.73;96705.56;4905106;29;20048;-78
2022/07/30 03:18:52;;;;;;;4.00;3.60;;;;;;;19.17;64.07;96702.44;4905877;29;20367;-78
2022/07/30 03:21:25;;;;;;;4.97;4.40;;;;;;;19.20;64.06;96711.75;4906224;29;20052;-80
2022/07/30 03:23:56;;;;;;;5.53;3.72;;;;;;;19.26;65.12;96710.81;4905692;29;20053;-78
2022/07/30 03:26:25;;;;;;;6.95;4.40;;;;;;;19.26;63.60;96703.69;4905746;29;20063;-81
2022/07/30 03:28:53;;;;;;;4.38;3.97;;;;;;;19.29;63.56;96710.34;4906505;29;20052;-78
2022/07/30 03:31:21;;;;;;;3.85;3.50;;;;;;;19.33;63.95;96716.78;4908260;29;20052;-78
2022/07/30 03:33:50;;;;;;;6.38;3.60;;;;;;;19.37;63.81;96717.91;4908519;29;20052;-81
2022/07/30 03:36:21;;;;;;;11.05;4.72;;;;;;;19.40;63.43;96721.94;4908097;29;20059;-79
2022/07/30 03:38:49;;;;;;;4.38;4.00;;;;;;;19.42;63.27;96725.16;4907169;29;20140;-82
2022/07/30 03:41:18;;;;;;;4.25;3.85;;;;;;;19.44;64.02;96723.06;4911849;29;20469;-79
2022/07/30 03:43:46;;;;;;;5.63;4.38;;;;;;;19.42;63.17;96731.25;4911599;29;20056;-79
2022/07/30 03:46:15;;;;;;;5.95;4.53;;;;;;;19.40;63.37;96738.63;4911116;29;20087;-79
2022/07/30 03:48:44;;;;;;;5.20;4.20;;;;;;;19.38;63.45;96735.41;4909831;29;20052;-79
2022/07/30 03:51:13;;;;;;;3.90;3.60;;;;;;;19.39;63.78;96746.78;4909054;29;20135;-78
2022/07/30 03:53:42;;;;;;;4.05;3.75;;;;;;;19.40;63.97;96753.69;4910130;29;20135;-78
2022/07/30 03:56:11;;;;;;;4.28;3.97;;;;;;;19.39;63.08;96747.56;4908848;29;20053;-78
2022/07/30 03:58:38;;;;;;;5.10;4.60;;;;;;;19.34;62.83;96750.91;4909003;29;20509;-80
2022/07/30 04:01:06;;;;;;;4.65;4.03;;;;;;;19.29;63.08;96753.47;4907920;29;20048;-78
2022/07/30 04:03:34;;;;;;;4.38;3.97;;;;;;;19.26;63.07;96759.25;4908078;29;20088;-79
2022/07/30 04:06:02;;;;;;;4.35;3.95;;;;;;;19.24;63.16;96763.97;4908114;29;20056;-77
2022/07/30 04:08:30;;;;;;;4.45;3.85;;;;;;;19.24;63.55;96763.97;4907603;29;20509;-77
2022/07/30 04:10:58;;;;;;;5.57;4.85;;;;;;;19.22;63.23;96773.97;4907471;29;20044;-78
2022/07/30 04:13:26;;;;;;;6.40;5.10;;;;;;;19.22;63.17;96773.97;4907668;29;20056;-79
2022/07/30 04:15:58;;;;;;;5.80;4.82;;;;;;;19.23;63.06;96777.41;4907357;29;20085;-78
2022/07/30 04:18:50;;;;;;;5.22;4.70;;;;;;;19.18;63.18;96778.09;4907131;29;20057;-79
2022/07/30 04:21:20;;;;;;;5.65;5.15;;;;;;;19.12;63.11;96774.53;4907370;29;20098;-77
2022/07/30 04:23:50;;;;;;;7.53;4.60;;;;;;;19.06;63.47;96785.22;4907244;29;20531;-79
2022/07/30 04:26:35;;;;;;;5.45;4.43;;;;;;;19.01;63.77;96787.78;4908046;29;20063;-79
2022/07/30 04:29:06;;;;;;;4.40;4.00;;;;;;;19.00;64.14;96788.78;4911088;29;20068;-80
2022/07/30 04:31:35;;;;;;;13.30;5.40;;;;;;;19.00;63.92;96792.25;4910839;29;20072;-82
2022/07/30 04:34:08;;;;;;;4.45;3.80;;;;;;;19.04;64.08;96798.66;4911128;29;20505;-79
2022/07/30 04:36:36;;;;;;;7.10;5.05;;;;;;;19.08;64.00;96793.75;4910334;29;20078;-78
2022/07/30 04:39:03;;;;;;;4.63;4.22;;;;;;;19.13;64.17;96794.66;4910476;29;20497;-79
2022/07/30 04:41:32;;;;;;;8.10;5.03;;;;;;;19.18;64.12;96807.19;4909460;29;20120;-79
2022/07/30 04:44:17;;;;;;;5.15;3.97;;;;;;;19.23;64.40;96807.28;4910729;29;20057;-80
2022/07/30 04:46:44;;;;;;;5.85;3.90;;;;;;;19.27;64.32;96808.44;4910091;29;20147;-79
2022/07/30 04:49:13;;;;;;;6.20;4.88;;;;;;;19.30;63.86;96807.97;4909619;29;20076;-79
2022/07/30 04:51:42;;;;;;;4.25;3.90;;;;;;;19.34;63.98;96814.41;4909576;29;20413;-79
2022/07/30 04:54:14;;;;;;;5.40;4.47;;;;;;;19.37;63.53;96823.72;4909246;29;20056;-81
2022/07/30 04:56:45;;;;;;;;;;;;;;;19.39;63.34;96816.34;4909490;29;20052;-80
2022/07/30 04:59:27;;;;;;;5.75;4.85;;;;;;;19.40;63.05;96815.31;4908356;29;20022;-79
2022/07/30 05:01:58;;;;;;;5.47;4.68;;;;;;;19.42;63.46;96823.03;4908137;29;20120;-81
2022/07/30 05:04:27;;;;;;;5.15;4.60;;;;;;;19.43;63.11;96811.41;4908523;29;20501;-77
2022/07/30 05:06:56;;;;;;;5.80;4.68;;;;;;;19.44;62.63;96823.59;4907951;29;20056;-77
2022/07/30 05:09:25;;;;;;;6.45;5.03;;;;;;;19.45;62.56;96822.56;4907623;29;20075;-79
2022/07/30 05:11:55;;;;;;;7.70;4.72;;;;;;;19.45;62.58;96818.06;4907333;29;20057;-77
2022/07/30 05:14:24;;;;;;;4.80;4.32;;;;;;;19.48;62.55;96819.44;4907267;29;20113;-79
2022/07/30 05:16:53;;;;;;;5.28;4.75;;;;;;;19.50;62.26;96817.38;4907723;29;20580;-83
2022/07/30 05:19:22;;;;;;;6.25;5.03;;;;;;;19.51;61.97;96824.28;4907654;29;20056;-79
2022/07/30 05:21:49;;;;;;;5.82;4.32;;;;;;;19.51;62.06;96826.94;4907252;29;20088;-79
2022/07/30 05:24:17;;;;;;;6.38;5.68;;;;;;;19.51;61.52;96825.06;4907136;29;20100;-78
2022/07/30 05:26:45;;;;;;;7.93;5.55;;;;;;;19.53;61.50;96832.78;4906366;29;20079;-78
2022/07/30 05:29:14;;;;;;;6.50;5.20;;;;;;;19.54;61.27;96831.75;4906204;29;20139;-78
2022/07/30 05:31:47;;;;;;;7.18;5.50;;;;;;;19.55;60.62;96830.72;4905460;29;20432;-79
2022/07/30 05:34:14;;;;;;;13.45;5.25;;;;;;;19.55;60.67;96836.00;4906585;29;20052;-79
2022/07/30 05:36:43;;;;;;;8.35;5.60;;;;;;;19.55;60.39;96833.38;4907880;29;20085;-79
2022/07/30 05:39:11;;;;;;;8.13;5.32;;;;;;;19.54;60.35;96839.69;4909442;29;20053;-79
2022/07/30 05:41:38;;;;;;;8.55;5.15;;;;;;;19.55;60.25;96836.00;4909275;29;20100;-81
2022/07/30 05:44:06;;;;;;;6.88;4.60;;;;;;;19.58;60.55;96830.25;4909272;29;20481;-79
2022/07/30 05:46:35;;;;;;;6.13;4.95;;;;;;;19.62;60.04;96838.53;4908928;29;20087;-82
2022/07/30 05:49:02;;;;;;;5.60;5.10;;;;;;;19.64;59.80;96837.25;4909783;29;20096;-80
2022/07/30 05:51:30;;;;;;;8.23;5.93;;;;;;;19.64;59.46;96826.66;4908713;29;20504;-79
2022/07/30 05:53:58;;;;;;;6.50;5.45;;;;;;;19.64;59.35;96831.16;4907337;29;20095;-81
2022/07/30 05:56:25;;;;;;;7.07;5.30;;;;;;;19.66;59.31;96835.19;4907847;29;20048;-79
2022/07/30 05:58:53;;;;;;;6.20;4.78;;;;;;;19.68;59.40;96843.69;4907244;29;20076;-79
2022/07/30 06:01:20;;;;;;;6.88;5.25;;;;;;;19.70;59.22;96849.59;4906497;29;20132;-80
2022/07/30 06:03:49;;;;;;;7.38;5.28;;;;;;;19.69;59.27;96847.97;4906904;29;20460;-78
2022/07/30 06:06:17;;;;;;;7.45;5.65;;;;;;;19.71;58.92;96845.09;4906427;29;20060;-79
2022/07/30 06:08:49;;;;;;;7.15;6.25;;;;;;;19.71;58.53;96847.75;4905759;29;20060;-78
2022/07/30 06:11:17;;;;;;;5.57;5.05;;;;;;;19.71;58.75;96853.81;4905180;29;20088;-81
2022/07/30 06:13:45;;;;;;;12.32;4.80;;;;;;;19.72;58.92;96851.97;4905193;29;20124;-78
2022/07/30 06:16:12;;;;;;;9.88;5.28;;;;;;;19.73;58.75;96854.41;4905842;29;20116;-78
2022/07/30 06:18:40;;;;;;;8.57;5.75;;;;;;;19.77;58.56;96860.03;4904727;29;20056;-81
2022/07/30 06:21:09;;;;;;;8.80;5.45;;;;;;;19.80;58.61;96858.78;4904847;29;20084;-83
2022/07/30 06:23:37;;;;;;;6.85;5.55;;;;;;;19.83;58.65;96853.00;4906482;29;20139;-81
2022/07/30 06:26:04;;;;;;;7.25;5.07;;;;;;;19.85;58.63;96850.91;4907627;29;20087;-80
2022/07/30 06:28:32;;;;;;;9.85;5.72;;;;;;;19.89;58.47;96857.34;4907782;29;20048;-82
2022/07/30 06:31:05;;;;;;;8.82;5.50;;;;;;;19.91;58.42;96852.63;4907753;29;20056;-80
2022/07/30 06:33:33;;;;;;;5.45;4.65;;;;;;;19.92;58.12;96851.63;4906878;29;20465;-83
2022/07/30 06:36:00;;;;;;;5.15;4.53;;;;;;;19.96;58.10;96852.72;4907015;29;20112;-81
2022/07/30 06:38:29;;;;;;;8.93;5.50;;;;;;;19.99;57.77;96856.78;4907112;29;20115;-81
2022/07/30 06:40:57;;;;;;;7.43;5.15;;;;;;;20.01;58.03;96849.41;4907041;29;20053;-80
2022/07/30 06:43:30;;;;;;;7.43;5.13;;;;;;;20.04;57.81;96856.84;4907380;29;20060;-81
2022/07/30 06:45:58;;;;;;;7.18;5.40;;;;;;;20.09;57.73;96859.59;4907291;29;20104;-81
2022/07/30 06:48:26;;;;;;;5.75;4.63;;;;;;;20.14;57.50;96865.81;4907796;29;20131;-81
2022/07/30 06:50:53;;;;;;;7.53;5.50;;;;;;;20.18;57.35;96852.88;4907134;29;20084;-82
2022/07/30 06:53:21;;;;;;;5.65;5.10;;;;;;;20.23;57.51;96868.88;4907008;29;20084;-80
2022/07/30 06:55:50;;;;;;;7.85;4.68;;;;;;;20.27;57.47;96863.88;4905677;29;20085;-81
2022/07/30 06:58:23;;;;;;;7.72;5.88;;;;;;;20.31;57.39;96870.31;4904428;29;20097;-81
2022/07/30 07:00:52;;;;;;;7.40;5.05;;;;;;;20.33;57.37;96862.94;4905171;29;20052;-80
2022/07/30 07:03:20;;;;;;;6.95;5.20;;;;;;;20.36;57.17;96870.44;4904926;29;20053;-80
2022/07/30 07:05:47;;;;;;;10.48;5.88;;;;;;;20.38;57.18;96868.34;4905117;29;20140;-78
2022/07/30 07:08:15;;;;;;;6.28;4.75;;;;;;;20.43;57.31;96875.59;4905192;29;20433;-80
2022/07/30 07:10:42;;;;;;;7.32;4.65;;;;;;;20.46;57.33;96878.56;4903471;29;20100;-81
2022/07/30 07:13:11;;;;;;;5.50;4.10;;;;;;;20.53;57.46;96878.41;4903022;29;20068;-82
2022/07/30 07:15:39;;;;;;;4.95;4.47;;;;;;;20.62;57.29;96870.91;4903270;29;20469;-79
2022/07/30 07:18:07;;;;;;;6.50;4.57;;;;;;;20.69;57.15;96872.38;4903484;29;20056;-85
2022/07/30 07:20:35;;;;;;;5.68;4.35;;;;;;;20.76;56.88;96877.50;4902575;29;20112;-79
2022/07/30 07:23:02;;;;;;;5.85;4.80;;;;;;;20.84;56.82;96873.66;4903138;29;20045;-80
2022/07/30 07:25:39;;;;;;;6.05;5.13;;;;;;;20.92;56.61;96871.41;4902714;29;20060;-80
2022/07/30 07:28:07;;;;;;;11.38;4.95;;;;;;;20.99;56.38;96881.88;4903009;29;20092;-78
2022/07/30 07:30:41;;;;;;;5.95;4.97;;;;;;;21.07;56.42;96878.00;4902754;29;20056;-78
2022/07/30 07:33:10;;;;;;;7.25;5.43;;;;;;;21.14;55.83;96875.97;4903664;29;20429;-82
2022/07/30 07:35:39;;;;;;;6.97;5.30;;;;;;;21.18;55.72;96877.09;4903420;29;20052;-81
2022/07/30 07:38:17;;;;;;;8.23;4.78;;;;;;;21.23;55.57;96874.56;4903672;29;20053;-80
2022/07/30 07:40:44;;;;;;;5.30;4.53;;;;;;;21.30;55.63;96877.03;4902445;29;20048;-80
2022/07/30 07:43:13;;;;;;;5.60;5.03;;;;;;;21.36;55.39;96887.47;4904500;29;20458;-81
2022/07/30 07:45:42;;;;;;;5.35;4.70;;;;;;;21.44;55.32;96880.16;4905484;29;20238;-81
2022/07/30 07:48:10;;;;;;;5.22;4.68;;;;;;;21.50;55.37;96879.19;4911621;29;20049;-83
2022/07/30 07:50:38;;;;;;;5.40;4.43;;;;;;;21.58;54.94;96878.75;4908105;29;20057;-82
2022/07/30 07:53:06;;;;;;;7.45;4.80;;;;;;;21.63;54.29;96881.50;4907573;29;20075;-80
2022/07/30 07:55:34;;;;;;;4.60;4.22;;;;;;;21.69;54.53;96877.88;4907713;29;20057;-82
2022/07/30 07:58:02;;;;;;;7.05;4.28;;;;;;;21.78;54.54;96884.34;4907342;29;20056;-81
2022/07/30 08:00:30;;;;;;;6.40;4.28;;;;;;;21.86;54.25;96877.00;4899325;29;20112;-79
2022/07/30 08:02:59;;;;;;;5.25;3.95;;;;;;;21.94;54.17;96882.69;4906375;29;20092;-79
2022/07/30 08:05:27;;;;;;;6.30;4.88;;;;;;;22.01;53.41;96882.50;4908996;29;20052;-82
2022/07/30 08:08:15;;;;;;;6.82;4.25;;;;;;;22.12;53.69;96883.41;4909624;29;20120;-80
2022/07/30 08:10:43;;;;;;;5.90;3.92;;;;;;;22.20;52.96;96881.13;4909973;29;20116;-89
2022/07/30 08:13:22;;;;;;;7.88;3.92;;;;;;;22.30;53.73;96874.34;4910870;29;20057;-88
2022/07/30 08:16:10;;;;;;;;;;;;;;;22.41;53.06;96884.84;4912109;29;20057;-80
2022/07/30 08:18:40;;;;;;;8.30;4.22;;;;;;;22.47;52.43;96880.34;4912952;29;19924;-80
2022/07/30 08:21:08;;;;;;;7.90;3.92;;;;;;;22.52;52.02;96876.94;4912531;29;20083;-80
2022/07/30 08:23:36;;;;;;;9.20;4.22;;;;;;;22.56;51.81;96880.72;4912847;29;20132;-79
2022/07/30 08:26:08;;;;;;;4.95;3.67;;;;;;;22.63;51.95;96874.16;4914142;29;20052;-81
2022/07/30 08:28:36;;;;;;;5.22;3.83;;;;;;;22.73;51.42;96872.63;4913239;29;20093;-81
2022/07/30 08:31:04;;;;;;;7.75;3.80;;;;;;;22.79;50.34;96882.25;4912571;29;20095;-80
2022/07/30 08:33:31;;;;;;;5.43;3.30;;;;;;;22.84;50.02;96882.28;4913160;29;20048;-80
2022/07/30 08:36:01;;;;;;;4.75;3.00;;;;;;;22.88;49.74;96885.25;4912109;29;20055;-82
2022/07/30 08:38:30;;;;;;;4.63;2.60;;;;;;;22.91;49.25;96890.84;4912247;29;20489;-80
2022/07/30 08:40:58;;;;;;;2.88;2.67;;;;;;;22.94;48.10;96885.06;4911783;29;20128;-80
2022/07/30 08:43:27;;;;;;;3.60;2.95;;;;;;;22.98;47.89;96890.66;4912251;29;20052;-83
2022/07/30 08:45:56;;;;;;;3.97;2.83;;;;;;;23.02;47.19;96892.59;4912685;29;20083;-81
2022/07/30 08:48:25;;;;;;;3.95;2.88;;;;;;;23.11;47.35;96889.44;4915424;29;20088;-84
2022/07/30 08:50:53;;;;;;;2.67;2.30;;;;;;;23.16;47.05;96886.84;4927191;23;20059;-75
2022/07/30 08:53:24;;;;;;;3.53;2.38;;;;;;;23.20;46.37;96893.25;4905522;29;20127;-75
2022/07/30 08:55:51;;;;;;;3.38;2.75;;;;;;;23.25;45.81;96890.63;4900527;29;20584;-76
2022/07/30 08:58:28;;;;;;;3.33;2.05;;;;;;;23.32;45.78;96880.56;4900294;29;20497;-75
2022/07/30 09:00:56;;;;;;;5.35;2.95;;;;;;;23.38;46.19;96894.72;4900010;29;20147;-76
2022/07/30 09:03:24;;;;;;;3.20;1.98;;;;;;;23.42;44.43;96896.59;4899986;29;20076;-76
2022/07/30 09:05:52;;;;;;;4.05;2.50;;;;;;;23.44;43.75;96891.03;4900600;29;20148;-75
2022/07/30 09:08:19;;;;;;;3.00;2.45;;;;;;;23.50;44.08;96884.66;4912474;29;20116;-75
2022/07/30 09:10:49;;;;;;;4.13;2.20;;;;;;;23.58;43.63;96883.38;4915281;29;20055;-76
2022/07/30 09:13:24;;;;;;;5.60;2.40;;;;;;;23.62;43.34;96889.78;4908058;29;20108;-76
2022/07/30 09:15:52;;;;;;;4.38;3.00;;;;;;;23.64;43.12;96895.66;4899949;29;20056;-75
2022/07/30 09:18:28;;;;;;;4.32;2.00;;;;;;;23.68;42.63;96883.44;4899625;29;20053;-76
2022/07/30 09:20:56;;;;;;;6.75;2.47;;;;;;;23.77;43.28;96892.56;4899039;29;20049;-76
2022/07/30 09:23:23;;;;;;;2.65;2.15;;;;;;;23.89;43.24;96888.88;4899318;29;20052;-75
2022/07/30 09:25:53;;;;;;;3.13;1.98;;;;;;;23.97;42.50;96891.84;4898888;29;20112;-75
2022/07/30 09:28:28;;;;;;;3.00;2.15;;;;;;;24.05;42.79;96893.19;4899109;29;20131;-75
2022/07/30 09:30:57;;;;;;;1.95;1.70;;;;;;;24.07;42.20;96896.41;4898995;29;20424;-76
2022/07/30 09:33:38;;;;;;;5.68;2.00;;;;;;;24.05;40.67;96894.03;4898921;29;20052;-75
2022/07/30 09:36:10;;;;;;;4.82;1.88;;;;;;;24.07;40.31;96899.06;4898871;29;20052;-75
2022/07/30 09:38:46;;;;;;;1.90;1.42;;;;;;;24.13;39.87;96894.56;4899510;29;20092;-75
2022/07/30 09:41:17;;;;;;;2.97;1.85;;;;;;;24.20;39.84;96890.59;4898678;29;20116;-75
2022/07/30 09:44:05;;;;;;;1.98;1.60;;;;;;;24.32;39.22;96897.56;4898709;29;20055;-75
2022/07/30 09:46:44;;;;;;;4.20;1.80;;;;;;;24.37;38.09;96895.72;4898697;29;20128;-76
2022/07/30 09:49:16;;;;;;;1.63;1.52;;;;;;;24.44;37.97;96895.44;4898375;29;20052;-75
2022/07/30 09:51:45;;;;;;;2.22;1.40;;;;;;;24.54;38.07;96895.50;4897958;29;20053;-76
2022/07/30 09:54:24;;;;;;;2.83;1.60;;;;;;;24.62;37.14;96902.19;4898281;29;20075;-75
2022/07/30 09:57:06;;;;;;;3.42;2.10;;;;;;;24.61;36.60;96908.59;4898204;29;20131;-76
2022/07/30 09:59:54;;;;;;;4.55;2.10;;;;;;;24.58;36.92;96912.59;4898500;29;20063;-75
2022/07/30 10:02:29;;;;;;;4.57;1.70;;;;;;;24.60;36.33;96905.13;4899724;29;20112;-76
2022/07/30 10:05:09;;;;;;;4.00;1.83;;;;;;;24.62;36.61;96908.34;4899766;29;20059;-76
2022/07/30 10:07:48;;;;;;;2.03;1.85;;;;;;;24.66;36.43;96896.06;4898835;29;20484;-75
2022/07/30 10:10:19;;;;;;;2.08;1.90;;;;;;;24.74;36.03;96907.28;4898880;29;20139;-75
2022/07/30 10:12:51;;;;;;;2.50;2.00;;;;;;;24.81;35.62;96894.47;4898915;29;20547;-76
2022/07/30 10:15:20;;;;;;;3.53;2.05;;;;;;;24.84;35.56;96897.41;4898153;29;20143;-76
2022/07/30 10:17:48;;;;;;;2.83;2.08;;;;;;;24.90;35.61;96897.41;4898423;29;20528;-75
2022/07/30 10:20:16;;;;;;;2.42;1.90;;;;;;;24.96;35.20;96894.47;4898009;29;20116;-75
2022/07/30 10:22:45;;;;;;;2.42;1.92;;;;;;;25.05;34.86;96902.75;4898014;29;20052;-75
2022/07/30 10:25:18;;;;;;;3.53;1.92;;;;;;;25.13;35.29;96906.78;4898074;29;20061;-75
2022/07/30 10:27:49;;;;;;;2.92;2.08;;;;;;;25.15;34.39;96893.97;4898279;29;20059;-76
2022/07/30 10:30:25;;;;;;;3.55;1.60;;;;;;;25.20;34.93;96896.66;4897583;29;20529;-76
2022/07/30 10:32:56;;;;;;;3.17;1.70;;;;;;;25.23;34.42;96896.09;4898410;29;20140;-76
2022/07/30 10:35:24;;;;;;;2.78;1.63;;;;;;;25.22;34.39;96889.16;4897882;29;20299;-76
2022/07/30 10:38:09;;;;;;;2.58;2.38;;;;;;;25.21;34.22;96903.56;4897558;29;20060;-76
2022/07/30 10:40:47;;;;;;;4.78;2.00;;;;;;;25.16;34.44;96899.00;4897707;29;20048;-75
2022/07/30 10:43:40;;;;;;;3.70;2.10;;;;;;;25.18;34.87;96896.09;4898051;29;20048;-75
2022/07/30 10:46:16;;;;;;;5.95;2.10;;;;;;;25.24;35.46;96892.38;4898320;29;20049;-76
2022/07/30 10:48:49;;;;;;;2.40;2.20;;;;;;;25.28;34.91;96898.78;4897743;29;20156;-76
2022/07/30 10:51:17;;;;;;;2.35;1.80;;;;;;;25.33;34.57;96892.63;4897894;29;20072;-74
2022/07/30 10:54:01;;;;;;;3.05;1.83;;;;;;;25.42;34.69;96883.78;4898120;29;20139;-74
2022/07/30 10:56:28;;;;;;;4.82;2.22;;;;;;;25.48;34.73;96882.72;4898454;29;20113;-74
2022/07/30 10:59:06;;;;;;;2.40;2.00;;;;;;;25.58;34.43;96891.78;4897902;29;20084;-75
2022/07/30 11:02:09;;;;;;;2.30;2.10;;;;;;;25.59;34.04;96894.19;4897629;29;20096;-75
2022/07/30 11:04:38;;;;;;;3.53;2.00;;;;;;;25.60;33.83;96884.28;4897872;29;20044;-75
2022/07/30 11:07:29;;;;;;;3.75;1.75;;;;;;;25.63;33.44;96889.91;4908608;29;20076;-75
2022/07/30 11:09:59;;;;;;;4.93;2.20;;;;;;;25.65;33.51;96881.63;4918610;29;20053;-75
2022/07/30 11:12:54;;;;;;;2.63;1.90;;;;;;;25.72;33.37;96892.81;4913681;29;20056;-75
2022/07/30 11:15:23;;;;;;;3.33;1.90;;;;;;;25.78;33.75;96891.72;4914509;29;20056;-75
2022/07/30 11:18:06;;;;;;;3.65;1.90;;;;;;;25.83;33.03;96894.38;4910472;29;20056;-76
2022/07/30 11:20:40;;;;;;;2.80;1.60;;;;;;;25.84;32.52;96887.94;4900596;29;20084;-75
2022/07/30 11:23:38;;;;;;;6.53;1.95;;;;;;;25.86;33.28;96890.34;4899504;29;20127;-75
2022/07/30 11:26:06;;;;;;;2.90;1.70;;;;;;;25.90;33.62;96892.22;4898630;29;20131;-76
2022/07/30 11:28:42;;;;;;;3.72;2.10;;;;;;;25.95;33.60;96891.41;4898251;29;20076;-75
2022/07/30 11:31:28;;;;;;;3.00;2.22;;;;;;;25.95;33.13;96891.41;4897106;29;20516;-75
2022/07/30 11:34:25;;;;;;;2.50;1.70;;;;;;;25.93;33.34;96895.44;4897464;29;20057;-74
2022/07/30 11:37:12;;;;;;;2.03;1.83;;;;;;;25.92;33.41;96880.50;4897068;29;20052;-75
2022/07/30 11:40:09;;;;;;;5.20;2.10;;;;;;;25.89;33.65;96874.63;4896858;29;20064;-74
2022/07/30 11:42:39;;;;;;;2.20;1.65;;;;;;;25.88;33.85;96875.66;4897219;29;20123;-75
2022/07/30 11:45:25;;;;;;;2.00;1.80;;;;;;;25.93;33.92;96876.72;4897229;29;20135;-74
2022/07/30 11:47:56;;;;;;;2.35;1.90;;;;;;;25.92;33.54;96875.16;4897082;29;20053;-74
2022/07/30 11:50:26;;;;;;;2.05;1.85;;;;;;;25.93;33.50;96874.84;4898726;29;20095;-75
2022/07/30 11:52:55;;;;;;;2.53;2.00;;;;;;;25.94;33.43;96870.31;4900870;29;20147;-75
2022/07/30 11:55:25;;;;;;;4.63;2.00;;;;;;;25.98;34.08;96869.50;4900525;29;20059;-75
2022/07/30 11:57:54;;;;;;;2.08;1.88;;;;;;;26.01;33.31;96879.63;4900610;29;20076;-75
2022/07/30 12:00:22;;;;;;;2.55;1.70;;;;;;;26.02;33.67;96883.09;4900676;29;20135;-75
2022/07/30 12:02:50;;;;;;;1.67;1.55;;;;;;;26.02;33.02;96875.91;4900564;29;20084;-75
2022/07/30 12:05:26;;;;;;;2.47;1.92;;;;;;;26.02;33.34;96883.91;4900749;29;20107;-75